createdAt,value
2023-04-15T01:00:52.258Z,7.3
2023-04-15T01:20:53.189Z,7.1
2023-04-15T01:30:54.301Z,7
2023-04-15T01:40:55.187Z,7
2023-04-15T01:50:55.442Z,6.9
2023-04-15T02:00:55.985Z,6.7
2023-04-15T02:10:56.312Z,6.6
2023-04-15T02:20:56.654Z,6.6
2023-04-15T02:30:57.719Z,6.4
2023-04-15T02:40:58.140Z,6.3
2023-04-15T02:50:58.735Z,6.3
2023-04-15T03:00:59.070Z,6.1
2023-04-15T03:10:59.511Z,6
2023-04-15T03:21:00.589Z,5.9
2023-04-15T03:31:00.938Z,5.8
2023-04-15T03:41:01.975Z,5.7
2023-04-15T03:51:02.535Z,5.7
2023-04-15T04:01:03.065Z,5.8
2023-04-15T04:11:03.603Z,5.9
2023-04-15T04:21:04.551Z,5.8
2023-04-15T04:31:04.696Z,5.6
2023-04-15T04:51:05.746Z,5.6
2023-04-15T05:01:06.545Z,5.6
2023-04-15T05:11:07.533Z,5.6
2023-04-15T05:21:08.238Z,5.5
2023-04-15T05:31:09.282Z,5.6
2023-04-15T05:41:10.169Z,5.6
2023-04-15T05:51:10.624Z,5.6
2023-04-15T06:01:11.420Z,5.9
2023-04-15T06:11:12.383Z,6.3
2023-04-15T06:21:13.375Z,6.6
2023-04-15T06:31:14.004Z,7
2023-04-15T06:41:14.693Z,7.3
2023-04-15T06:51:15.802Z,7.5
2023-04-15T07:01:16.191Z,7.7
2023-04-15T07:11:16.907Z,7.9
2023-04-15T07:21:17.951Z,8
2023-04-15T07:41:19.010Z,8.4
2023-04-15T07:51:19.220Z,8.6
2023-04-15T08:01:19.923Z,8.8
2023-04-15T08:11:20.980Z,9.2
2023-04-15T08:21:21.967Z,9.5
2023-04-15T08:31:22.597Z,9.8
2023-04-15T08:41:23.662Z,9.8
2023-04-15T08:51:24.949Z,9.8
2023-04-15T09:01:24.692Z,9.9
2023-04-15T09:11:24.821Z,9.7
2023-04-15T09:21:25.278Z,9.8
2023-04-15T09:41:26.152Z,9.7
2023-04-15T09:51:26.312Z,9.6
2023-04-15T10:01:26.743Z,10
2023-04-15T10:11:28.297Z,10.1
2023-04-15T10:21:27.487Z,10.1
2023-04-15T10:31:28.499Z,10.2
2023-04-15T10:41:29.262Z,10.2
2023-04-15T10:51:29.660Z,10.1
2023-04-15T11:01:30.238Z,10
2023-04-15T11:11:30.830Z,9.9
2023-04-15T11:21:31.672Z,10
2023-04-15T11:31:32.579Z,10
2023-04-15T11:41:33.241Z,10.1
2023-04-15T11:51:34.214Z,10.2
2023-04-15T12:01:35.398Z,10.2
2023-04-15T12:11:35.917Z,10.3
2023-04-15T12:21:36.527Z,10.4
2023-04-15T12:31:37.196Z,10.4
2023-04-15T12:41:38.300Z,10.4
2023-04-15T12:51:39.186Z,10.3
2023-04-15T13:01:39.707Z,10.3
2023-04-15T13:21:41.097Z,10.4
2023-04-15T13:31:41.356Z,10.4
2023-04-15T13:41:41.473Z,10.3
2023-04-15T13:51:42.194Z,10
2023-04-15T14:01:42.986Z,9.8
2023-04-15T14:11:43.556Z,9.6
2023-04-15T14:21:43.922Z,9.7
2023-04-15T14:31:44.900Z,9.5
2023-04-15T14:41:45.987Z,9.4
2023-04-15T14:51:46.604Z,9.4
2023-04-15T15:01:47.063Z,9.3
2023-04-15T15:11:48.008Z,9.2
2023-04-15T15:21:48.269Z,9.1
2023-04-15T15:31:48.846Z,9.1
2023-04-15T15:41:49.649Z,9
2023-04-15T15:51:50.117Z,8.9
2023-04-15T16:01:50.280Z,8.8
2023-04-15T16:11:50.434Z,8.7
2023-04-15T16:21:51.140Z,8.6
2023-04-15T16:31:51.535Z,8.6
2023-04-15T16:41:51.887Z,8.6
2023-04-15T16:51:54.120Z,8.5
2023-04-15T17:01:52.782Z,8.4
2023-04-15T17:21:55.006Z,8.3
2023-04-15T17:41:55.516Z,8.4
2023-04-15T17:51:56.206Z,8.4
2023-04-15T18:01:56.461Z,8.3
2023-04-15T18:11:56.943Z,8.3
2023-04-15T18:21:57.318Z,8.2
2023-04-15T18:31:58.393Z,8.1
2023-04-15T18:41:59.450Z,8.1
2023-04-15T18:51:59.860Z,8.1
2023-04-15T19:02:00.211Z,8.1
2023-04-15T19:12:00.826Z,8
2023-04-15T19:22:01.348Z,8
2023-04-15T19:32:02.100Z,8
2023-04-15T19:42:02.277Z,8
2023-04-15T19:52:02.869Z,7.9
2023-04-15T20:12:05.497Z,7.9
2023-04-15T20:32:06.005Z,7.9
2023-04-15T20:42:07.136Z,7.9
2023-04-15T20:52:07.708Z,7.9
2023-04-15T21:12:08.581Z,7.9
2023-04-15T21:32:10.311Z,7.8
2023-04-15T21:42:11.143Z,7.9
2023-04-15T21:52:11.571Z,7.9
2023-04-15T22:12:13.513Z,7.8
2023-04-15T22:22:13.867Z,7.9
2023-04-15T22:32:14.134Z,7.8
2023-04-15T22:52:27.445Z,7.8
2023-04-15T23:02:15.586Z,7.8
2023-04-15T23:12:16.303Z,7.9
2023-04-15T23:32:18.138Z,7.9
2023-04-15T23:42:19.072Z,7.9
2023-04-15T23:52:19.623Z,7.9
